Time;durP1;ratioP1;P1;durP2;ratioP2;P2;SDS_P1;SDS_P2;PMS_P1;PMS_P2;Temp;Humidity;BMP_temperature;BMP_pressure;BME280_temperature;BME280_humidity;BME280_pressure;Samples;Min_cycle;Max_cycle;Signal;HPM_P1;HPM_P2
2022/04/09 00:00:21;;;;;;;0.20;0.17;;;6.10;99.90;;;;;;5052833;28;20029;-75
2022/04/09 00:02:47;;;;;;;0.00;0.00;;;6.10;99.90;;;;;;5052903;28;20021;-77
2022/04/09 00:05:13;;;;;;;0.00;0.00;;;6.10;99.90;;;;;;5052762;28;20491;-75
2022/04/09 00:07:39;;;;;;;0.00;0.00;;;6.10;99.90;;;;;;5051911;28;20109;-76
2022/04/09 00:10:07;;;;;;;0.00;0.00;;;6.20;99.90;;;;;;5052413;28;20017;-76
2022/04/09 00:12:33;;;;;;;0.00;0.00;;;6.20;99.90;;;;;;5053189;28;20025;-75
2022/04/09 00:14:59;;;;;;;0.28;0.28;;;6.20;99.90;;;;;;5052719;28;20100;-75
2022/04/09 00:17:25;;;;;;;0.00;0.00;;;6.10;99.90;;;;;;5052979;28;20079;-76
2022/04/09 00:19:52;;;;;;;0.00;0.00;;;6.10;99.90;;;;;;5052285;28;20033;-75
2022/04/09 00:22:18;;;;;;;0.00;0.00;;;6.10;99.90;;;;;;5052795;28;20555;-75
2022/04/09 00:24:43;;;;;;;0.00;0.00;;;6.00;99.90;;;;;;5052492;28;20021;-75
2022/04/09 00:27:09;;;;;;;0.00;0.00;;;6.10;99.90;;;;;;5053110;28;20108;-75
2022/04/09 00:29:35;;;;;;;0.10;0.10;;;6.20;99.90;;;;;;5052591;28;20105;-77
2022/04/09 00:32:00;;;;;;;0.00;0.00;;;6.30;99.90;;;;;;5053016;28;20111;-77
2022/04/09 00:34:26;;;;;;;0.00;0.00;;;6.30;99.90;;;;;;5052282;28;20029;-76
2022/04/09 00:36:52;;;;;;;0.20;0.20;;;6.40;99.90;;;;;;5034586;28;20028;-75
2022/04/09 00:39:18;;;;;;;0.00;0.00;;;6.50;99.90;;;;;;5052607;28;20490;-75
2022/04/09 00:41:47;;;;;;;0.50;0.50;;;6.60;99.90;;;;;;5052378;28;20025;-75
2022/04/09 00:44:22;;;;;;;0.20;0.20;;;6.70;99.90;;;;;;5063984;28;20048;-77
2022/04/09 00:46:48;;;;;;;2.75;0.80;;;6.70;99.90;;;;;;5076174;28;20031;-76
2022/04/09 00:49:16;;;;;;;0.08;0.08;;;6.70;99.90;;;;;;5076325;28;20024;-75
2022/04/09 00:51:43;;;;;;;0.00;0.00;;;6.80;99.90;;;;;;5076408;28;20063;-77
2022/04/09 00:54:11;;;;;;;0.00;0.00;;;6.70;99.90;;;;;;5115525;28;20019;-77
2022/04/09 00:56:39;;;;;;;0.00;0.00;;;6.70;99.90;;;;;;5116745;28;20041;-77
2022/04/09 00:59:06;;;;;;;3.20;0.73;;;6.70;99.90;;;;;;5116708;28;20031;-77
2022/04/09 01:01:36;;;;;;;0.10;0.10;;;6.70;99.90;;;;;;5116525;28;20102;-75
2022/04/09 01:04:06;;;;;;;0.10;0.10;;;6.70;99.90;;;;;;5116369;28;20047;-74
2022/04/09 01:06:33;;;;;;;0.03;0.03;;;6.70;99.90;;;;;;5116897;28;20023;-78
2022/04/09 01:08:59;;;;;;;0.00;0.00;;;6.70;99.90;;;;;;5116080;28;20034;-75
2022/04/09 01:11:25;;;;;;;0.00;0.00;;;6.70;99.90;;;;;;5116332;28;20094;-77
2022/04/09 01:13:51;;;;;;;0.30;0.30;;;6.80;99.90;;;;;;5115575;28;20028;-77
2022/04/09 01:16:17;;;;;;;0.10;0.10;;;6.80;99.90;;;;;;5116925;28;20103;-74
2022/04/09 01:18:43;;;;;;;0.85;0.50;;;6.70;99.90;;;;;;5115344;28;20528;-75
2022/04/09 01:21:09;;;;;;;0.08;0.08;;;6.70;99.90;;;;;;5116456;28;20102;-75
2022/04/09 01:23:35;;;;;;;0.10;0.10;;;6.70;99.90;;;;;;5097815;28;20450;-77
2022/04/09 01:26:04;;;;;;;0.20;0.10;;;6.70;99.90;;;;;;5116363;28;20390;-75
2022/04/09 01:28:31;;;;;;;0.00;0.00;;;6.70;99.90;;;;;;5117094;28;20047;-75
2022/04/09 01:30:57;;;;;;;0.00;0.00;;;6.70;99.90;;;;;;5116084;28;20039;-77
2022/04/09 01:33:23;;;;;;;0.00;0.00;;;6.60;99.90;;;;;;5115790;28;20031;-76
2022/04/09 01:35:50;;;;;;;0.00;0.00;;;6.50;99.90;;;;;;5115841;28;20016;-76
2022/04/09 01:38:16;;;;;;;0.00;0.00;;;6.40;99.90;;;;;;5115744;28;20031;-75
2022/04/09 01:40:42;;;;;;;0.10;0.10;;;6.30;99.90;;;;;;5084502;28;20020;-76
2022/04/09 01:43:08;;;;;;;0.00;0.00;;;6.30;99.90;;;;;;5076591;28;20107;-75
2022/04/09 01:45:34;;;;;;;0.00;0.00;;;6.30;99.90;;;;;;5075167;28;20062;-75
2022/04/09 01:48:00;;;;;;;4.38;1.08;;;6.20;99.90;;;;;;5074928;28;20024;-77
2022/04/09 01:50:26;;;;;;;0.00;0.00;;;6.10;99.90;;;;;;5074963;28;20013;-77
2022/04/09 01:52:52;;;;;;;0.00;0.00;;;6.00;99.90;;;;;;5092434;28;20031;-77
2022/04/09 01:55:18;;;;;;;0.10;0.10;;;5.90;99.90;;;;;;5115146;28;20077;-77
2022/04/09 01:57:44;;;;;;;0.00;0.00;;;5.80;99.90;;;;;;5097354;28;20027;-76
2022/04/09 02:00:12;;;;;;;0.00;0.00;;;5.80;99.90;;;;;;5115600;28;20027;-76
2022/04/09 02:02:38;;;;;;;0.00;0.00;;;5.80;99.90;;;;;;5115680;28;20525;-75
2022/04/09 02:05:04;;;;;;;0.00;0.00;;;5.90;99.90;;;;;;5116847;28;20023;-78
2022/04/09 02:07:30;;;;;;;0.00;0.00;;;6.10;99.90;;;;;;5116393;28;20024;-76
2022/04/09 02:09:55;;;;;;;0.00;0.00;;;6.20;99.90;;;;;;5114900;28;20073;-76
2022/04/09 02:12:21;;;;;;;0.00;0.00;;;6.30;99.90;;;;;;5115471;28;20028;-77
2022/04/09 02:14:47;;;;;;;0.00;0.00;;;6.60;99.90;;;;;;5114914;28;20390;-75
2022/04/09 02:17:13;;;;;;;0.15;0.15;;;7.00;99.90;;;;;;5115627;28;20032;-76
2022/04/09 02:19:39;;;;;;;0.00;0.00;;;7.20;99.90;;;;;;5114769;28;20028;-75
2022/04/09 02:22:06;;;;;;;0.00;0.00;;;7.30;99.90;;;;;;5115096;28;20122;-76
2022/04/09 02:24:32;;;;;;;0.05;0.05;;;7.40;99.90;;;;;;5115022;28;20073;-76
2022/04/09 02:26:57;;;;;;;0.00;0.00;;;7.30;99.90;;;;;;5115069;28;20024;-76
2022/04/09 02:29:23;;;;;;;0.10;0.10;;;7.20;99.90;;;;;;5116357;28;20039;-76
2022/04/09 02:31:49;;;;;;;0.00;0.00;;;7.20;99.90;;;;;;5115473;28;20027;-76
2022/04/09 02:34:15;;;;;;;0.00;0.00;;;7.10;99.90;;;;;;5113889;28;20016;-76
2022/04/09 02:36:41;;;;;;;0.00;0.00;;;6.90;99.90;;;;;;5114734;28;20015;-76
2022/04/09 02:39:07;;;;;;;0.00;0.00;;;6.60;99.90;;;;;;5114657;28;20053;-76
2022/04/09 02:41:33;;;;;;;0.00;0.00;;;6.50;99.90;;;;;;5097992;28;20059;-76
2022/04/09 02:43:59;;;;;;;1.45;1.10;;;6.40;99.90;;;;;;5094978;28;20470;-76
2022/04/09 02:46:25;;;;;;;0.00;0.00;;;6.20;99.90;;;;;;5094341;28;20024;-76
2022/04/09 02:48:51;;;;;;;0.00;0.00;;;6.10;99.90;;;;;;5093534;28;20028;-76
2022/04/09 02:51:17;;;;;;;0.38;0.38;;;5.90;99.90;;;;;;5076029;28;20111;-76
2022/04/09 02:53:44;;;;;;;0.00;0.00;;;5.80;99.90;;;;;;5112039;28;20024;-75
2022/04/09 02:56:10;;;;;;;1.35;0.20;;;5.70;99.90;;;;;;5114384;28;20509;-76
2022/04/09 02:58:36;;;;;;;0.00;0.00;;;5.70;99.90;;;;;;5114667;28;20027;-76
2022/04/09 03:01:01;;;;;;;0.30;0.30;;;5.60;99.90;;;;;;5114184;28;20474;-76
2022/04/09 03:03:27;;;;;;;0.10;0.10;;;5.60;99.90;;;;;;5113385;28;20027;-76
2022/04/09 03:05:53;;;;;;;9.90;0.35;;;5.50;99.90;;;;;;5114117;28;20057;-75
2022/04/09 03:08:18;;;;;;;2.00;0.30;;;5.50;99.90;;;;;;5113947;28;20024;-75
2022/04/09 03:10:44;;;;;;;0.75;0.47;;;5.50;99.90;;;;;;5113887;28;20028;-76
2022/04/09 03:13:10;;;;;;;0.10;0.10;;;5.50;99.90;;;;;;5113291;28;20038;-76
2022/04/09 03:15:35;;;;;;;0.00;0.00;;;5.40;99.90;;;;;;5114531;28;20076;-76
2022/04/09 03:18:01;;;;;;;0.00;0.00;;;5.40;99.90;;;;;;5096894;28;20479;-76
2022/04/09 03:20:28;;;;;;;0.10;0.10;;;5.30;99.90;;;;;;5075157;28;20070;-76
2022/04/09 03:22:53;;;;;;;0.00;0.00;;;5.30;99.90;;;;;;5093543;28;20024;-76
2022/04/09 03:25:20;;;;;;;0.00;0.00;;;5.30;99.90;;;;;;5093602;28;20533;-76
2022/04/09 03:27:45;;;;;;;0.10;0.10;;;5.30;99.90;;;;;;5094434;28;20065;-76
2022/04/09 03:30:11;;;;;;;0.05;0.05;;;5.20;99.90;;;;;;5093630;28;20438;-76
2022/04/09 03:32:38;;;;;;;0.00;0.00;;;5.30;99.90;;;;;;5093333;28;20413;-76
2022/04/09 03:35:05;;;;;;;0.00;0.00;;;5.20;99.90;;;;;;5093087;28;20066;-75
2022/04/09 03:37:31;;;;;;;0.00;0.00;;;5.20;99.90;;;;;;5093248;28;20020;-75
2022/04/09 03:39:56;;;;;;;0.00;0.00;;;5.20;99.90;;;;;;5093926;28;20035;-75
2022/04/09 03:42:22;;;;;;;8.00;1.65;;;5.10;99.90;;;;;;5094025;28;20036;-75
2022/04/09 03:44:47;;;;;;;0.00;0.00;;;5.10;99.90;;;;;;5093091;28;20105;-76
2022/04/09 03:47:13;;;;;;;0.22;0.22;;;5.10;99.90;;;;;;5093378;28;20027;-76
2022/04/09 03:49:39;;;;;;;0.03;0.03;;;5.10;99.90;;;;;;5074808;28;20513;-75
2022/04/09 03:52:04;;;;;;;0.40;0.40;;;5.30;99.90;;;;;;5095548;28;20016;-75
2022/04/09 03:54:32;;;;;;;0.40;0.40;;;5.30;99.90;;;;;;5113530;28;20020;-75
2022/04/09 03:56:58;;;;;;;0.00;0.00;;;5.40;99.90;;;;;;5113682;28;20015;-76
2022/04/09 03:59:23;;;;;;;0.00;0.00;;;5.40;99.90;;;;;;5113457;28;20031;-75
2022/04/09 04:01:50;;;;;;;0.20;0.20;;;5.50;99.90;;;;;;5114221;28;20027;-76
2022/04/09 04:04:16;;;;;;;0.00;0.00;;;5.50;99.90;;;;;;5113241;28;20041;-75
2022/04/09 04:06:42;;;;;;;0.00;0.00;;;5.60;99.90;;;;;;5113719;28;20020;-75
2022/04/09 04:09:07;;;;;;;0.00;0.00;;;5.60;99.90;;;;;;5112985;28;20062;-75
2022/04/09 04:11:34;;;;;;;0.22;0.22;;;5.60;99.90;;;;;;5113480;28;20427;-75
2022/04/09 04:13:59;;;;;;;0.00;0.00;;;5.60;99.90;;;;;;5094402;28;20023;-76
2022/04/09 04:16:25;;;;;;;0.10;0.10;;;5.50;99.90;;;;;;5113412;28;20019;-75
2022/04/09 04:18:51;;;;;;;0.10;0.10;;;5.50;99.90;;;;;;5116757;28;20038;-76
2022/04/09 04:21:16;;;;;;;0.15;0.15;;;5.40;99.90;;;;;;5117619;28;20030;-76
2022/04/09 04:23:42;;;;;;;0.25;0.25;;;5.40;99.90;;;;;;5117443;28;20028;-76
2022/04/09 04:26:08;;;;;;;0.05;0.05;;;5.30;99.90;;;;;;5118771;28;20020;-76
2022/04/09 04:28:33;;;;;;;0.10;0.10;;;5.30;99.90;;;;;;5099609;28;20390;-75
2022/04/09 04:30:59;;;;;;;0.00;0.00;;;5.30;99.90;;;;;;5117061;28;20103;-75
2022/04/09 04:33:25;;;;;;;2.42;1.17;;;5.20;99.90;;;;;;5116895;28;20024;-76
2022/04/09 04:35:51;;;;;;;0.00;0.00;;;5.20;99.90;;;;;;5119767;28;20031;-76
2022/04/09 04:38:16;;;;;;;0.00;0.00;;;5.20;99.90;;;;;;5117193;28;20038;-76
2022/04/09 04:40:42;;;;;;;0.00;0.00;;;5.20;99.90;;;;;;5100037;28;20017;-76
2022/04/09 04:43:08;;;;;;;0.20;0.20;;;5.10;99.90;;;;;;5076441;28;20159;-76
2022/04/09 04:45:34;;;;;;;0.00;0.00;;;5.10;99.90;;;;;;5076450;28;20507;-77
2022/04/09 04:47:59;;;;;;;0.10;0.10;;;5.00;99.90;;;;;;5077157;28;20122;-76
2022/04/09 04:50:25;;;;;;;0.10;0.10;;;5.00;99.90;;;;;;5076332;28;20444;-76
2022/04/09 04:52:51;;;;;;;0.10;0.10;;;5.00;99.90;;;;;;5093820;28;20020;-76
2022/04/09 04:55:17;;;;;;;0.10;0.10;;;4.90;99.90;;;;;;5116867;28;20035;-76
2022/04/09 04:57:50;;;;;;;0.00;0.00;;;4.90;99.90;;;;;;5118075;28;20478;-76
2022/04/09 05:00:17;;;;;;;;;;;4.90;99.90;;;;;;5116951;28;20047;-76
2022/04/09 05:02:43;;;;;;;0.00;0.00;;;4.90;99.90;;;;;;5116586;28;19912;-76
2022/04/09 05:05:09;;;;;;;0.10;0.10;;;5.00;99.90;;;;;;5116590;28;20034;-76
2022/04/09 05:07:50;;;;;;;0.10;0.10;;;5.00;99.90;;;;;;5098913;28;20077;-76
2022/04/09 05:10:17;;;;;;;0.05;0.05;;;5.00;99.90;;;;;;5117797;28;20027;-76
2022/04/09 05:12:44;;;;;;;0.10;0.10;;;5.00;99.90;;;;;;5098051;28;20034;-76
2022/04/09 05:15:12;;;;;;;0.00;0.00;;;5.00;99.90;;;;;;5116304;28;20066;-76
2022/04/09 05:17:37;;;;;;;0.10;0.10;;;5.00;99.90;;;;;;5116237;28;20023;-76
2022/04/09 05:20:08;;;;;;;0.00;0.00;;;5.00;99.90;;;;;;5116000;28;20451;-76
2022/04/09 05:22:36;;;;;;;0.25;0.25;;;5.00;99.90;;;;;;5115945;28;20035;-76
2022/04/09 05:25:03;;;;;;;1.33;0.95;;;5.00;99.90;;;;;;5115704;28;20028;-76
2022/04/09 05:27:29;;;;;;;0.10;0.10;;;4.90;99.90;;;;;;5116154;28;20547;-77
2022/04/09 05:29:56;;;;;;;0.03;0.03;;;4.90;99.90;;;;;;5115269;28;20020;-75
2022/04/09 05:32:22;;;;;;;0.40;0.40;;;4.90;99.90;;;;;;5116254;28;20028;-76
2022/04/09 05:34:49;;;;;;;0.10;0.10;;;4.90;99.90;;;;;;5115836;28;20379;-76
2022/04/09 05:37:15;;;;;;;0.20;0.20;;;4.90;99.90;;;;;;5097252;28;20095;-76
2022/04/09 05:39:47;;;;;;;0.30;0.30;;;4.90;99.90;;;;;;5096018;28;20024;-76
2022/04/09 05:42:13;;;;;;;1.27;0.95;;;4.80;99.90;;;;;;5075507;28;20035;-77
2022/04/09 05:44:39;;;;;;;0.20;0.20;;;4.80;99.90;;;;;;5075462;28;20412;-77
2022/04/09 05:47:05;;;;;;;0.00;0.00;;;4.80;99.90;;;;;;5075079;28;20029;-76
2022/04/09 05:49:31;;;;;;;0.20;0.20;;;4.70;99.90;;;;;;5074828;28;20025;-76
2022/04/09 05:51:57;;;;;;;0.10;0.10;;;4.70;99.90;;;;;;5077169;28;20028;-76
2022/04/09 05:54:24;;;;;;;0.30;0.30;;;4.70;99.90;;;;;;5116030;28;20020;-76
2022/04/09 05:56:50;;;;;;;0.05;0.05;;;4.80;99.90;;;;;;5115213;28;20016;-76
2022/04/09 05:59:16;;;;;;;4.53;0.65;;;4.70;99.90;;;;;;5114910;28;20103;-76
2022/04/09 06:01:45;;;;;;;0.50;0.50;;;4.80;99.90;;;;;;5115718;28;20074;-76
2022/04/09 06:04:11;;;;;;;0.52;0.50;;;4.80;99.90;;;;;;5115337;28;20486;-76
2022/04/09 06:06:37;;;;;;;0.68;0.68;;;4.80;99.90;;;;;;5097149;28;20055;-76
2022/04/09 06:09:04;;;;;;;0.40;0.40;;;4.90;99.90;;;;;;5115422;28;20047;-76
2022/04/09 06:11:30;;;;;;;0.95;0.93;;;4.90;99.90;;;;;;5114477;28;20024;-77
2022/04/09 06:13:56;;;;;;;0.50;0.50;;;5.00;99.90;;;;;;5115115;28;20032;-76
2022/04/09 06:16:22;;;;;;;0.20;0.20;;;5.10;99.90;;;;;;5115682;28;20023;-76
2022/04/09 06:18:48;;;;;;;0.38;0.38;;;5.10;99.90;;;;;;5114575;28;20058;-77
2022/04/09 06:21:14;;;;;;;0.28;0.28;;;5.10;99.90;;;;;;5115142;28;20054;-77
2022/04/09 06:23:40;;;;;;;0.05;0.05;;;5.20;99.90;;;;;;5115187;28;20055;-76
2022/04/09 06:26:06;;;;;;;0.20;0.20;;;5.20;99.90;;;;;;5114879;28;20070;-76
2022/04/09 06:28:33;;;;;;;0.80;0.80;;;5.30;99.90;;;;;;5114994;28;20410;-77
2022/04/09 06:30:59;;;;;;;0.38;0.38;;;5.40;99.90;;;;;;5118026;28;20016;-76
2022/04/09 06:33:25;;;;;;;0.73;0.73;;;5.50;99.90;;;;;;5113846;28;20024;-77
2022/04/09 06:35:51;;;;;;;0.50;0.50;;;5.60;99.90;;;;;;5115172;28;20482;-77
2022/04/09 06:38:16;;;;;;;0.82;0.82;;;5.70;99.90;;;;;;5114842;28;20387;-77
2022/04/09 06:40:42;;;;;;;0.30;0.30;;;5.70;99.90;;;;;;5097355;28;20028;-77
2022/04/09 06:43:08;;;;;;;0.30;0.30;;;5.80;99.90;;;;;;5075042;28;20067;-77
2022/04/09 06:45:34;;;;;;;0.32;0.32;;;5.90;99.90;;;;;;5074105;28;20107;-76
2022/04/09 06:48:00;;;;;;;0.20;0.20;;;6.00;99.90;;;;;;5055748;28;20078;-77
2022/04/09 06:50:25;;;;;;;0.30;0.30;;;6.10;99.90;;;;;;5074204;28;20487;-77
2022/04/09 06:52:51;;;;;;;0.28;0.28;;;6.20;99.90;;;;;;5082459;28;20016;-77
2022/04/09 06:55:17;;;;;;;0.20;0.20;;;6.30;99.90;;;;;;5075307;28;20031;-77
2022/04/09 06:57:43;;;;;;;0.40;0.40;;;6.40;99.90;;;;;;5094251;28;20036;-77
2022/04/09 07:00:12;;;;;;;0.35;0.35;;;6.50;99.90;;;;;;5094089;28;20069;-78
2022/04/09 07:02:38;;;;;;;0.03;0.03;;;6.60;99.90;;;;;;5094020;28;20027;-77
2022/04/09 07:05:05;;;;;;;0.10;0.10;;;6.70;99.90;;;;;;5093812;28;20044;-77
2022/04/09 07:07:31;;;;;;;0.73;0.57;;;6.70;99.90;;;;;;5093600;28;20024;-78
2022/04/09 07:10:11;;;;;;;0.00;0.00;;;6.90;99.90;;;;;;5092794;28;20027;-78
2022/04/09 07:12:39;;;;;;;0.00;0.00;;;7.00;99.90;;;;;;5092799;28;20024;-77
2022/04/09 07:15:06;;;;;;;0.68;0.40;;;7.10;99.90;;;;;;5093332;28;20106;-78
2022/04/09 07:17:32;;;;;;;3.92;0.70;;;7.20;99.90;;;;;;5093809;28;20020;-77
2022/04/09 07:20:00;;;;;;;0.20;0.20;;;7.30;99.90;;;;;;5093449;28;20026;-78
2022/04/09 07:22:27;;;;;;;0.52;0.52;;;7.40;99.90;;;;;;5093815;28;20020;-77
2022/04/09 07:24:53;;;;;;;0.00;0.00;;;7.60;99.90;;;;;;5093492;28;20039;-78
2022/04/09 07:27:20;;;;;;;0.77;0.63;;;7.80;99.90;;;;;;5075399;28;20028;-78
2022/04/09 07:29:46;;;;;;;0.10;0.10;;;7.90;99.90;;;;;;5093602;28;20020;-77
2022/04/09 07:32:12;;;;;;;0.15;0.15;;;8.00;99.90;;;;;;5093729;28;20081;-76
2022/04/09 07:34:38;;;;;;;0.63;0.63;;;8.20;99.90;;;;;;5093111;28;20467;-77
2022/04/09 07:37:04;;;;;;;0.20;0.20;;;8.30;99.90;;;;;;5093520;28;20020;-77
2022/04/09 07:39:30;;;;;;;0.00;0.00;;;8.40;99.90;;;;;;5093118;28;20023;-77
2022/04/09 07:41:56;;;;;;;0.00;0.00;;;8.60;99.90;;;;;;5092669;28;20040;-78
2022/04/09 07:44:22;;;;;;;15.50;0.73;;;8.70;99.90;;;;;;5093233;28;20044;-78
2022/04/09 07:46:48;;;;;;;0.15;0.15;;;8.90;99.90;;;;;;5093240;28;20435;-77
2022/04/09 07:49:14;;;;;;;0.00;0.00;;;9.00;99.90;;;;;;5093120;28;20394;-79
2022/04/09 07:51:40;;;;;;;1.58;0.82;;;9.20;99.90;;;;;;5092807;28;20020;-77
2022/04/09 07:54:06;;;;;;;2.40;0.20;;;9.30;99.90;;;;;;5074824;28;20034;-79
2022/04/09 07:56:32;;;;;;;0.45;0.43;;;9.70;99.90;;;;;;5093137;28;20454;-78
2022/04/09 07:58:58;;;;;;;0.10;0.10;;;11.50;99.90;;;;;;5095289;28;20085;-78
2022/04/09 08:01:23;;;;;;;3.30;1.40;;;14.40;99.90;;;;;;5114709;28;20031;-80
2022/04/09 08:03:49;;;;;;;1.27;1.02;;;16.70;99.90;;;;;;5113417;28;20055;-80
2022/04/09 08:06:15;;;;;;;1.73;0.50;;;17.60;98.70;;;;;;5095372;28;20036;-80
2022/04/09 08:08:41;;;;;;;0.00;0.00;;;18.00;97.40;;;;;;5095043;28;20031;-79
2022/04/09 08:11:07;;;;;;;1.77;0.55;;;19.00;96.30;;;;;;5113088;28;20110;-80
2022/04/09 08:13:33;;;;;;;1.25;0.70;;;19.50;95.80;;;;;;5114811;28;20020;-79
2022/04/09 08:15:59;;;;;;;0.10;0.10;;;20.70;94.30;;;;;;5113478;28;20367;-79
2022/04/09 08:18:25;;;;;;;0.70;0.65;;;21.10;92.60;;;;;;5105800;28;20020;-80
2022/04/09 08:20:52;;;;;;;1.38;0.38;;;20.70;92.30;;;;;;5072764;28;20021;-80
2022/04/09 08:23:17;;;;;;;0.40;0.40;;;21.10;91.90;;;;;;5072714;28;20025;-80
2022/04/09 08:25:43;;;;;;;0.40;0.40;;;21.00;91.20;;;;;;5075731;28;20112;-79
2022/04/09 08:28:09;;;;;;;1.77;0.30;;;21.00;90.70;;;;;;5072799;28;20025;-81
2022/04/09 08:30:35;;;;;;;0.73;0.20;;;21.10;91.10;;;;;;5072970;28;20090;-79
2022/04/09 08:33:05;;;;;;;1.70;0.15;;;22.40;90.10;;;;;;5072559;28;20029;-80
2022/04/09 08:35:31;;;;;;;0.10;0.10;;;22.60;89.10;;;;;;5073989;28;20017;-79
2022/04/09 08:37:57;;;;;;;2.20;0.98;;;23.00;88.70;;;;;;5086184;28;20019;-80
2022/04/09 08:40:24;;;;;;;3.15;0.20;;;23.10;88.40;;;;;;5092958;28;20091;-80
2022/04/09 08:42:50;;;;;;;4.25;0.22;;;23.10;88.20;;;;;;5093082;28;20020;-80
2022/04/09 08:45:17;;;;;;;1.48;0.15;;;23.10;86.50;;;;;;5113359;28;20035;-78
2022/04/09 08:47:44;;;;;;;0.17;0.13;;;22.70;85.00;;;;;;5098004;28;20032;-76
2022/04/09 08:50:14;;;;;;;1.02;0.95;;;23.20;86.30;;;;;;5113095;28;20535;-78
2022/04/09 08:52:41;;;;;;;0.38;0.20;;;22.50;84.90;;;;;;5105220;28;20077;-77
2022/04/09 08:55:09;;;;;;;0.28;0.28;;;22.00;85.50;;;;;;5092531;28;20081;-77
2022/04/09 08:57:35;;;;;;;1.00;0.63;;;22.40;85.10;;;;;;5094010;28;20017;-77
2022/04/09 09:00:13;;;;;;;0.20;0.20;;;22.00;85.30;;;;;;5092705;28;20024;-77
2022/04/09 09:02:57;;;;;;;0.38;0.20;;;22.00;84.30;;;;;;5092318;28;20020;-77
2022/04/09 09:05:28;;;;;;;2.38;0.47;;;22.70;81.60;;;;;;5095251;28;20031;-77
2022/04/09 09:07:54;;;;;;;0.28;0.28;;;22.50;83.60;;;;;;5097755;28;20016;-77
2022/04/09 09:10:20;;;;;;;2.75;0.20;;;22.30;84.60;;;;;;5097230;28;20405;-76
2022/04/09 09:12:59;;;;;;;0.10;0.10;;;21.90;83.10;;;;;;5095416;28;20035;-76
2022/04/09 09:15:26;;;;;;;1.20;0.17;;;22.50;81.80;;;;;;5096262;28;20422;-76
2022/04/09 09:17:57;;;;;;;1.40;1.02;;;23.60;81.80;;;;;;5096121;28;20046;-76
2022/04/09 09:20:24;;;;;;;3.30;1.10;;;24.00;81.70;;;;;;5077501;28;20409;-76
2022/04/09 09:22:50;;;;;;;4.13;0.25;;;23.60;81.20;;;;;;5075744;28;20016;-76
2022/04/09 09:25:17;;;;;;;0.10;0.10;;;23.60;80.90;;;;;;5075740;28;20539;-77
2022/04/09 09:27:43;;;;;;;0.20;0.20;;;24.40;79.90;;;;;;5074921;28;20012;-76
2022/04/09 09:30:11;;;;;;;0.10;0.10;;;25.10;76.50;;;;;;5076776;28;20028;-76
2022/04/09 09:32:38;;;;;;;0.65;0.40;;;24.60;78.00;;;;;;5075408;28;20024;-76
2022/04/09 09:35:05;;;;;;;0.30;0.20;;;24.00;78.70;;;;;;5075114;28;20029;-77
2022/04/09 09:37:31;;;;;;;1.45;0.40;;;24.10;77.20;;;;;;5084223;28;20016;-76
2022/04/09 09:39:57;;;;;;;0.20;0.20;;;24.00;76.50;;;;;;5095903;28;20036;-76
2022/04/09 09:42:26;;;;;;;3.72;0.13;;;23.70;79.20;;;;;;5099505;28;20024;-77
2022/04/09 09:44:52;;;;;;;0.10;0.10;;;25.20;77.40;;;;;;5102439;28;20048;-76
2022/04/09 09:47:18;;;;;;;0.30;0.30;;;24.80;73.60;;;;;;5095475;28;20100;-76
2022/04/09 09:49:47;;;;;;;0.55;0.35;;;24.90;78.30;;;;;;5076972;28;20118;-76
2022/04/09 09:52:13;;;;;;;1.35;0.30;;;23.80;76.50;;;;;;5092993;28;20086;-76
2022/04/09 09:54:56;;;;;;;1.13;0.73;;;23.80;78.20;;;;;;5074194;28;20487;-76
2022/04/09 09:57:25;;;;;;;0.20;0.20;;;23.80;76.20;;;;;;5075331;28;20074;-76
2022/04/09 09:59:53;;;;;;;0.98;0.52;;;22.90;74.70;;;;;;5075066;28;20016;-76
2022/04/09 10:02:23;;;;;;;0.50;0.50;;;20.80;81.10;;;;;;5075708;28;20067;-76
2022/04/09 10:04:50;;;;;;;0.00;0.00;;;20.50;81.70;;;;;;5074554;28;20025;-76
2022/04/09 10:07:17;;;;;;;0.55;0.35;;;20.10;81.10;;;;;;5075266;28;20013;-76
2022/04/09 10:09:44;;;;;;;0.20;0.20;;;20.20;81.40;;;;;;5074575;28;20059;-76
2022/04/09 10:12:17;;;;;;;0.20;0.20;;;20.20;79.30;;;;;;5074131;28;20017;-76
2022/04/09 10:14:48;;;;;;;2.70;0.85;;;21.50;77.80;;;;;;5073893;28;20046;-76
2022/04/09 10:17:18;;;;;;;4.63;0.28;;;22.00;76.10;;;;;;5074681;28;20492;-76
2022/04/09 10:19:44;;;;;;;0.10;0.10;;;22.60;74.10;;;;;;5060308;28;20014;-76
2022/04/09 10:22:12;;;;;;;9.02;0.43;;;23.00;73.50;;;;;;5054595;28;20029;-76
2022/04/09 10:24:40;;;;;;;0.10;0.10;;;22.70;77.60;;;;;;5054601;28;20049;-76
2022/04/09 10:27:08;;;;;;;0.20;0.20;;;23.10;78.40;;;;;;5054872;28;20014;-76
2022/04/09 10:29:49;;;;;;;3.20;1.17;;;23.40;76.30;;;;;;5054625;28;20104;-76
2022/04/09 10:32:43;;;;;;;0.67;0.67;;;23.10;74.60;;;;;;5054267;28;20021;-75
2022/04/09 10:35:38;;;;;;;0.10;0.10;;;22.40;72.50;;;;;;5052994;28;20021;-76
2022/04/09 10:38:07;;;;;;;0.90;0.45;;;21.50;74.10;;;;;;5065466;28;20090;-76
2022/04/09 10:40:45;;;;;;;3.10;0.52;;;21.00;75.70;;;;;;5074286;28;20036;-76
2022/04/09 10:43:38;;;;;;;0.15;0.10;;;19.90;77.70;;;;;;5074597;28;20365;-76
2022/04/09 10:46:05;;;;;;;0.25;0.10;;;18.70;79.20;;;;;;5093660;28;20067;-78
2022/04/09 10:48:34;;;;;;;0.00;0.00;;;16.60;83.00;;;;;;5094086;28;20395;-78
2022/04/09 10:51:11;;;;;;;0.00;0.00;;;16.70;83.10;;;;;;5094481;28;20024;-79
2022/04/09 10:53:42;;;;;;;0.08;0.08;;;17.30;89.20;;;;;;5093966;28;20541;-79
2022/04/09 10:56:25;;;;;;;0.00;0.00;;;17.50;89.40;;;;;;5094023;28;20091;-79
2022/04/09 10:59:03;;;;;;;0.57;0.10;;;17.20;83.50;;;;;;5093996;28;20024;-79
2022/04/09 11:01:47;;;;;;;3.20;0.40;;;16.90;85.20;;;;;;5094158;28;20029;-78
2022/04/09 11:04:31;;;;;;;0.00;0.00;;;16.80;84.10;;;;;;5093756;28;20031;-79
2022/04/09 11:07:04;;;;;;;0.00;0.00;;;16.80;83.80;;;;;;5094148;28;20019;-78
2022/04/09 11:10:02;;;;;;;0.57;0.10;;;16.70;82.80;;;;;;5093747;28;20031;-79
2022/04/09 11:12:40;;;;;;;1.38;0.32;;;17.40;82.50;;;;;;5092617;28;20024;-78
2022/04/09 11:15:11;;;;;;;0.32;0.10;;;17.20;84.30;;;;;;5093846;28;20077;-78
2022/04/09 11:17:45;;;;;;;0.00;0.00;;;16.70;83.20;;;;;;5098286;28;20028;-78
2022/04/09 11:20:16;;;;;;;0.30;0.08;;;15.70;83.10;;;;;;5075752;28;20533;-78
2022/04/09 11:22:47;;;;;;;0.75;0.47;;;14.90;89.90;;;;;;5073442;28;20447;-78
2022/04/09 11:25:25;;;;;;;0.00;0.00;;;14.80;91.00;;;;;;5073566;28;20058;-79
2022/04/09 11:27:52;;;;;;;2.95;0.50;;;15.30;90.30;;;;;;5072769;28;20120;-78
2022/04/09 11:30:19;;;;;;;1.23;0.10;;;15.40;89.10;;;;;;5075285;28;20392;-79
2022/04/09 11:32:48;;;;;;;0.10;0.10;;;15.80;86.30;;;;;;5073029;28;20062;-79
2022/04/09 11:35:16;;;;;;;0.00;0.00;;;16.30;86.20;;;;;;5055467;28;20029;-78
2022/04/09 11:37:48;;;;;;;14.65;1.13;;;15.90;89.70;;;;;;5058848;28;20441;-79
2022/04/09 11:40:15;;;;;;;0.00;0.00;;;15.90;88.60;;;;;;5075668;28;20032;-78
2022/04/09 11:42:45;;;;;;;0.55;0.40;;;15.40;88.90;;;;;;5093290;28;20024;-78
2022/04/09 11:45:31;;;;;;;5.47;0.10;;;15.40;89.70;;;;;;5093173;28;20044;-78
2022/04/09 11:48:00;;;;;;;3.97;0.17;;;15.30;88.70;;;;;;5092546;28;20048;-78
2022/04/09 11:50:33;;;;;;;0.10;0.10;;;15.20;90.50;;;;;;5093469;28;20032;-78
2022/04/09 11:53:14;;;;;;;0.20;0.10;;;15.00;90.50;;;;;;5083418;28;20023;-78
2022/04/09 11:55:43;;;;;;;1.60;0.15;;;15.10;90.10;;;;;;5073154;28;20024;-78
2022/04/09 11:58:11;;;;;;;0.00;0.00;;;15.40;89.00;;;;;;5073005;28;20021;-78
2022/04/09 12:00:42;;;;;;;1.00;0.77;;;15.30;87.60;;;;;;5072954;28;20029;-77
2022/04/09 12:03:08;;;;;;;0.00;0.00;;;15.20;89.10;;;;;;5072817;28;20021;-78
2022/04/09 12:05:39;;;;;;;0.00;0.00;;;15.30;90.50;;;;;;5073245;28;20383;-77
2022/04/09 12:08:14;;;;;;;0.00;0.00;;;15.30;89.30;;;;;;5073084;28;20028;-78
2022/04/09 12:11:01;;;;;;;0.10;0.10;;;15.30;90.80;;;;;;5073939;28;20028;-78
2022/04/09 12:13:33;;;;;;;0.00;0.00;;;14.60;90.10;;;;;;5072132;28;20016;-77
2022/04/09 12:16:12;;;;;;;5.63;1.20;;;14.10;90.90;;;;;;5073007;28;20506;-77
2022/04/09 12:18:38;;;;;;;1.50;0.22;;;14.30;91.60;;;;;;5067542;28;20045;-77
2022/04/09 12:21:28;;;;;;;0.00;0.00;;;14.50;91.20;;;;;;5053117;28;20052;-77
2022/04/09 12:24:05;;;;;;;0.00;0.00;;;15.00;90.00;;;;;;5052462;28;20068;-76
2022/04/09 12:26:42;;;;;;;2.67;1.27;;;14.60;91.40;;;;;;5052846;28;20029;-77
2022/04/09 12:29:12;;;;;;;0.00;0.00;;;14.70;90.70;;;;;;5052562;28;20377;-77
2022/04/09 12:31:42;;;;;;;0.15;0.00;;;14.80;91.60;;;;;;5053585;28;20016;-77
2022/04/09 12:34:08;;;;;;;0.00;0.00;;;14.80;90.40;;;;;;5052284;28;20031;-76
2022/04/09 12:36:34;;;;;;;0.00;0.00;;;14.90;92.50;;;;;;5053624;28;20025;-77
2022/04/09 12:39:02;;;;;;;0.00;0.00;;;14.40;90.60;;;;;;5074971;28;20016;-77
2022/04/09 12:41:45;;;;;;;0.10;0.10;;;14.40;91.40;;;;;;5076812;28;20052;-76
2022/04/09 12:44:27;;;;;;;0.00;0.00;;;14.50;91.20;;;;;;5065356;28;20126;-77
2022/04/09 12:46:56;;;;;;;0.03;0.00;;;14.60;92.30;;;;;;5096652;28;20051;-77
2022/04/09 12:49:28;;;;;;;0.00;0.00;;;14.90;91.70;;;;;;5096845;28;20368;-76
2022/04/09 12:51:54;;;;;;;0.00;0.00;;;14.80;89.30;;;;;;5099004;28;20111;-78
2022/04/09 12:54:21;;;;;;;0.13;0.03;;;14.80;90.70;;;;;;5096853;28;20056;-78
2022/04/09 12:56:47;;;;;;;0.00;0.00;;;14.90;90.70;;;;;;5095708;28;20082;-76